sensor_id;sensor_type;location;lat;lon;timestamp;P1;durP1;ratioP1;P2;durP2;ratioP2
25351;SDS011;13304;48.464;8.712;2023-12-22T00:02:24;5.40;;;1.38;;
25351;SDS011;13304;48.464;8.712;2023-12-22T00:04:51;5.95;;;1.38;;
25351;SDS011;13304;48.464;8.712;2023-12-22T00:07:16;4.72;;;1.13;;
25351;SDS011;13304;48.464;8.712;2023-12-22T00:09:42;8.75;;;1.45;;
25351;SDS011;13304;48.464;8.712;2023-12-22T00:12:08;9.25;;;1.80;;
25351;SDS011;13304;48.464;8.712;2023-12-22T00:14:34;8.27;;;1.63;;
25351;SDS011;13304;48.464;8.712;2023-12-22T00:16:59;6.93;;;1.52;;
25351;SDS011;13304;48.464;8.712;2023-12-22T00:19:25;6.72;;;1.70;;
25351;SDS011;13304;48.464;8.712;2023-12-22T00:21:51;9.15;;;1.55;;
25351;SDS011;13304;48.464;8.712;2023-12-22T00:24:16;7.55;;;1.80;;
25351;SDS011;13304;48.464;8.712;2023-12-22T00:26:42;6.25;;;2.05;;
25351;SDS011;13304;48.464;8.712;2023-12-22T00:29:07;10.57;;;1.60;;
25351;SDS011;13304;48.464;8.712;2023-12-22T00:31:33;11.45;;;2.05;;
25351;SDS011;13304;48.464;8.712;2023-12-22T00:33:59;7.85;;;2.00;;
25351;SDS011;13304;48.464;8.712;2023-12-22T00:36:26;4.10;;;1.50;;
25351;SDS011;13304;48.464;8.712;2023-12-22T00:38:52;6.65;;;1.73;;
25351;SDS011;13304;48.464;8.712;2023-12-22T00:41:17;12.50;;;1.85;;
25351;SDS011;13304;48.464;8.712;2023-12-22T00:43:43;8.15;;;1.92;;
25351;SDS011;13304;48.464;8.712;2023-12-22T00:46:09;10.80;;;2.35;;
25351;SDS011;13304;48.464;8.712;2023-12-22T00:48:34;10.20;;;1.58;;
25351;SDS011;13304;48.464;8.712;2023-12-22T00:51:00;7.55;;;1.50;;
25351;SDS011;13304;48.464;8.712;2023-12-22T00:53:26;6.88;;;1.40;;
25351;SDS011;13304;48.464;8.712;2023-12-22T00:55:51;9.95;;;1.50;;
25351;SDS011;13304;48.464;8.712;2023-12-22T00:58:17;8.05;;;1.27;;
25351;SDS011;13304;48.464;8.712;2023-12-22T01:00:43;5.03;;;1.33;;
25351;SDS011;13304;48.464;8.712;2023-12-22T01:03:09;4.22;;;1.20;;
25351;SDS011;13304;48.464;8.712;2023-12-22T01:05:36;2.42;;;1.00;;
25351;SDS011;13304;48.464;8.712;2023-12-22T01:08:02;4.32;;;0.88;;
25351;SDS011;13304;48.464;8.712;2023-12-22T01:10:28;4.78;;;0.75;;
25351;SDS011;13304;48.464;8.712;2023-12-22T01:12:56;6.55;;;1.58;;
25351;SDS011;13304;48.464;8.712;2023-12-22T01:15:22;4.23;;;1.10;;
25351;SDS011;13304;48.464;8.712;2023-12-22T01:17:48;6.68;;;1.10;;
25351;SDS011;13304;48.464;8.712;2023-12-22T01:20:13;5.07;;;1.00;;
25351;SDS011;13304;48.464;8.712;2023-12-22T01:22:39;7.82;;;1.52;;
25351;SDS011;13304;48.464;8.712;2023-12-22T01:25:05;7.40;;;2.10;;
25351;SDS011;13304;48.464;8.712;2023-12-22T01:27:31;8.93;;;1.90;;
25351;SDS011;13304;48.464;8.712;2023-12-22T01:29:57;8.35;;;1.60;;
25351;SDS011;13304;48.464;8.712;2023-12-22T01:32:23;6.03;;;1.50;;
25351;SDS011;13304;48.464;8.712;2023-12-22T01:34:48;10.27;;;1.88;;
25351;SDS011;13304;48.464;8.712;2023-12-22T01:37:14;10.88;;;1.80;;
25351;SDS011;13304;48.464;8.712;2023-12-22T01:39:40;8.27;;;1.73;;
25351;SDS011;13304;48.464;8.712;2023-12-22T01:42:05;9.70;;;2.20;;
25351;SDS011;13304;48.464;8.712;2023-12-22T01:44:31;11.82;;;1.67;;
25351;SDS011;13304;48.464;8.712;2023-12-22T01:46:56;5.32;;;1.67;;
25351;SDS011;13304;48.464;8.712;2023-12-22T01:49:23;9.93;;;2.03;;
25351;SDS011;13304;48.464;8.712;2023-12-22T01:51:50;6.97;;;1.42;;
25351;SDS011;13304;48.464;8.712;2023-12-22T01:54:17;6.60;;;1.38;;
25351;SDS011;13304;48.464;8.712;2023-12-22T01:56:43;3.45;;;0.98;;
25351;SDS011;13304;48.464;8.712;2023-12-22T01:59:10;6.07;;;1.17;;
25351;SDS011;13304;48.464;8.712;2023-12-22T02:01:36;4.93;;;0.88;;
25351;SDS011;13304;48.464;8.712;2023-12-22T02:04:03;3.70;;;1.10;;
25351;SDS011;13304;48.464;8.712;2023-12-22T02:06:29;4.63;;;1.08;;
25351;SDS011;13304;48.464;8.712;2023-12-22T02:08:56;7.57;;;1.60;;
25351;SDS011;13304;48.464;8.712;2023-12-22T02:11:23;8.75;;;1.48;;
25351;SDS011;13304;48.464;8.712;2023-12-22T02:13:48;11.88;;;1.98;;
25351;SDS011;13304;48.464;8.712;2023-12-22T02:16:18;6.50;;;1.55;;
25351;SDS011;13304;48.464;8.712;2023-12-22T02:19:07;5.45;;;1.20;;
25351;SDS011;13304;48.464;8.712;2023-12-22T02:22:01;8.50;;;1.40;;
25351;SDS011;13304;48.464;8.712;2023-12-22T02:24:28;4.15;;;0.98;;
25351;SDS011;13304;48.464;8.712;2023-12-22T02:32:27;7.63;;;1.27;;
25351;SDS011;13304;48.464;8.712;2023-12-22T02:34:57;6.95;;;1.50;;
25351;SDS011;13304;48.464;8.712;2023-12-22T02:37:24;7.82;;;1.83;;
25351;SDS011;13304;48.464;8.712;2023-12-22T02:39:51;6.55;;;1.67;;
25351;SDS011;13304;48.464;8.712;2023-12-22T02:42:18;7.82;;;2.17;;
25351;SDS011;13304;48.464;8.712;2023-12-22T02:44:45;7.93;;;1.65;;
25351;SDS011;13304;48.464;8.712;2023-12-22T02:47:11;10.55;;;1.60;;
25351;SDS011;13304;48.464;8.712;2023-12-22T02:49:36;8.32;;;1.25;;
25351;SDS011;13304;48.464;8.712;2023-12-22T02:52:02;12.10;;;1.80;;
25351;SDS011;13304;48.464;8.712;2023-12-22T02:54:28;9.38;;;1.80;;
25351;SDS011;13304;48.464;8.712;2023-12-22T02:56:55;7.15;;;1.50;;
25351;SDS011;13304;48.464;8.712;2023-12-22T02:59:21;11.57;;;1.88;;
25351;SDS011;13304;48.464;8.712;2023-12-22T03:01:47;13.18;;;2.00;;
25351;SDS011;13304;48.464;8.712;2023-12-22T03:04:12;8.65;;;1.58;;
25351;SDS011;13304;48.464;8.712;2023-12-22T03:06:38;1.92;;;0.70;;
25351;SDS011;13304;48.464;8.712;2023-12-22T03:09:04;3.13;;;0.77;;
25351;SDS011;13304;48.464;8.712;2023-12-22T03:11:31;6.57;;;1.00;;
25351;SDS011;13304;48.464;8.712;2023-12-22T03:13:56;4.50;;;1.10;;
25351;SDS011;13304;48.464;8.712;2023-12-22T03:16:22;5.90;;;1.17;;
25351;SDS011;13304;48.464;8.712;2023-12-22T03:18:47;10.57;;;1.90;;
25351;SDS011;13304;48.464;8.712;2023-12-22T03:21:17;6.28;;;1.23;;
25351;SDS011;13304;48.464;8.712;2023-12-22T03:23:44;7.38;;;1.20;;
25351;SDS011;13304;48.464;8.712;2023-12-22T03:26:09;5.60;;;1.20;;
25351;SDS011;13304;48.464;8.712;2023-12-22T03:28:35;5.38;;;1.05;;
25351;SDS011;13304;48.464;8.712;2023-12-22T03:31:01;8.55;;;1.75;;
25351;SDS011;13304;48.464;8.712;2023-12-22T03:33:26;9.55;;;1.67;;
25351;SDS011;13304;48.464;8.712;2023-12-22T03:35:52;10.88;;;1.83;;
25351;SDS011;13304;48.464;8.712;2023-12-22T03:38:17;8.30;;;1.70;;
25351;SDS011;13304;48.464;8.712;2023-12-22T03:40:43;7.93;;;1.38;;
25351;SDS011;13304;48.464;8.712;2023-12-22T03:43:09;9.10;;;2.20;;
25351;SDS011;13304;48.464;8.712;2023-12-22T03:45:34;10.10;;;2.25;;
25351;SDS011;13304;48.464;8.712;2023-12-22T03:48:00;9.60;;;1.83;;
25351;SDS011;13304;48.464;8.712;2023-12-22T03:50:25;10.02;;;1.75;;
25351;SDS011;13304;48.464;8.712;2023-12-22T03:52:51;10.35;;;2.30;;
25351;SDS011;13304;48.464;8.712;2023-12-22T03:55:17;13.77;;;2.30;;
25351;SDS011;13304;48.464;8.712;2023-12-22T03:57:42;7.75;;;1.95;;
25351;SDS011;13304;48.464;8.712;2023-12-22T04:00:08;7.25;;;1.52;;
25351;SDS011;13304;48.464;8.712;2023-12-22T04:02:34;10.02;;;1.42;;
25351;SDS011;13304;48.464;8.712;2023-12-22T04:05:00;9.82;;;2.13;;
25351;SDS011;13304;48.464;8.712;2023-12-22T04:07:31;12.18;;;1.75;;
25351;SDS011;13304;48.464;8.712;2023-12-22T04:09:56;11.18;;;2.00;;
25351;SDS011;13304;48.464;8.712;2023-12-22T04:12:22;9.00;;;1.73;;
25351;SDS011;13304;48.464;8.712;2023-12-22T04:14:47;11.38;;;1.70;;
25351;SDS011;13304;48.464;8.712;2023-12-22T04:17:13;6.50;;;1.40;;
25351;SDS011;13304;48.464;8.712;2023-12-22T04:19:39;5.97;;;1.27;;
25351;SDS011;13304;48.464;8.712;2023-12-22T04:22:04;6.78;;;1.23;;
25351;SDS011;13304;48.464;8.712;2023-12-22T04:24:30;4.88;;;1.00;;
25351;SDS011;13304;48.464;8.712;2023-12-22T04:26:56;3.85;;;1.17;;
25351;SDS011;13304;48.464;8.712;2023-12-22T04:29:21;5.05;;;1.10;;
25351;SDS011;13304;48.464;8.712;2023-12-22T04:31:47;4.88;;;1.10;;
25351;SDS011;13304;48.464;8.712;2023-12-22T04:34:15;2.15;;;0.75;;
25351;SDS011;13304;48.464;8.712;2023-12-22T04:36:41;3.28;;;1.00;;
25351;SDS011;13304;48.464;8.712;2023-12-22T04:39:07;8.50;;;1.20;;
25351;SDS011;13304;48.464;8.712;2023-12-22T04:41:32;6.60;;;1.48;;
25351;SDS011;13304;48.464;8.712;2023-12-22T04:43:58;10.45;;;2.28;;
25351;SDS011;13304;48.464;8.712;2023-12-22T04:46:28;11.88;;;2.20;;
25351;SDS011;13304;48.464;8.712;2023-12-22T04:48:54;50.75;;;3.10;;
25351;SDS011;13304;48.464;8.712;2023-12-22T04:51:20;15.73;;;2.28;;
25351;SDS011;13304;48.464;8.712;2023-12-22T04:53:46;17.30;;;2.28;;
25351;SDS011;13304;48.464;8.712;2023-12-22T04:56:11;15.20;;;2.65;;
25351;SDS011;13304;48.464;8.712;2023-12-22T04:58:37;13.93;;;2.60;;
25351;SDS011;13304;48.464;8.712;2023-12-22T05:01:03;15.70;;;2.80;;
25351;SDS011;13304;48.464;8.712;2023-12-22T05:03:28;15.20;;;2.65;;
25351;SDS011;13304;48.464;8.712;2023-12-22T05:05:54;21.08;;;2.72;;
25351;SDS011;13304;48.464;8.712;2023-12-22T05:08:20;15.43;;;2.85;;
25351;SDS011;13304;48.464;8.712;2023-12-22T05:10:45;17.52;;;3.30;;
25351;SDS011;13304;48.464;8.712;2023-12-22T05:13:11;14.00;;;2.85;;
25351;SDS011;13304;48.464;8.712;2023-12-22T05:15:37;17.55;;;3.28;;
25351;SDS011;13304;48.464;8.712;2023-12-22T05:18:02;14.85;;;3.03;;
25351;SDS011;13304;48.464;8.712;2023-12-22T05:20:28;21.58;;;2.80;;
25351;SDS011;13304;48.464;8.712;2023-12-22T05:22:54;21.00;;;3.63;;
25351;SDS011;13304;48.464;8.712;2023-12-22T05:25:19;18.45;;;2.60;;
25351;SDS011;13304;48.464;8.712;2023-12-22T05:27:45;23.23;;;3.00;;
25351;SDS011;13304;48.464;8.712;2023-12-22T05:30:11;11.68;;;2.53;;
25351;SDS011;13304;48.464;8.712;2023-12-22T05:32:37;18.52;;;3.53;;
25351;SDS011;13304;48.464;8.712;2023-12-22T05:35:03;11.40;;;2.33;;
25351;SDS011;13304;48.464;8.712;2023-12-22T05:37:29;14.82;;;2.10;;
25351;SDS011;13304;48.464;8.712;2023-12-22T05:39:54;15.00;;;3.13;;
25351;SDS011;13304;48.464;8.712;2023-12-22T05:42:20;13.93;;;2.83;;
25351;SDS011;13304;48.464;8.712;2023-12-22T05:44:46;18.90;;;3.10;;
25351;SDS011;13304;48.464;8.712;2023-12-22T05:47:14;11.23;;;2.47;;
25351;SDS011;13304;48.464;8.712;2023-12-22T05:49:41;10.15;;;2.33;;
25351;SDS011;13304;48.464;8.712;2023-12-22T05:52:06;12.43;;;2.13;;
25351;SDS011;13304;48.464;8.712;2023-12-22T05:54:34;11.30;;;2.30;;
25351;SDS011;13304;48.464;8.712;2023-12-22T05:56:59;8.30;;;2.00;;
25351;SDS011;13304;48.464;8.712;2023-12-22T05:59:25;12.23;;;2.20;;
25351;SDS011;13304;48.464;8.712;2023-12-22T06:01:55;13.82;;;2.10;;
25351;SDS011;13304;48.464;8.712;2023-12-22T06:04:21;11.68;;;2.47;;
25351;SDS011;13304;48.464;8.712;2023-12-22T06:06:47;11.77;;;2.05;;
25351;SDS011;13304;48.464;8.712;2023-12-22T06:09:12;15.30;;;3.42;;
25351;SDS011;13304;48.464;8.712;2023-12-22T06:11:38;13.88;;;3.75;;
25351;SDS011;13304;48.464;8.712;2023-12-22T06:14:07;17.60;;;3.97;;
25351;SDS011;13304;48.464;8.712;2023-12-22T06:16:32;15.82;;;4.80;;
25351;SDS011;13304;48.464;8.712;2023-12-22T06:18:58;14.18;;;3.13;;
25351;SDS011;13304;48.464;8.712;2023-12-22T06:21:23;11.75;;;2.40;;
25351;SDS011;13304;48.464;8.712;2023-12-22T06:23:49;14.15;;;2.22;;
25351;SDS011;13304;48.464;8.712;2023-12-22T06:26:15;18.55;;;2.90;;
25351;SDS011;13304;48.464;8.712;2023-12-22T06:28:41;16.50;;;3.05;;
25351;SDS011;13304;48.464;8.712;2023-12-22T06:31:07;15.77;;;2.80;;
25351;SDS011;13304;48.464;8.712;2023-12-22T06:33:34;14.70;;;2.33;;
25351;SDS011;13304;48.464;8.712;2023-12-22T06:35:59;12.68;;;2.50;;
25351;SDS011;13304;48.464;8.712;2023-12-22T06:38:25;12.40;;;2.67;;
25351;SDS011;13304;48.464;8.712;2023-12-22T06:40:51;17.50;;;2.97;;
25351;SDS011;13304;48.464;8.712;2023-12-22T06:43:16;15.40;;;3.72;;
25351;SDS011;13304;48.464;8.712;2023-12-22T06:45:42;15.55;;;3.35;;
25351;SDS011;13304;48.464;8.712;2023-12-22T06:48:07;13.48;;;2.60;;
25351;SDS011;13304;48.464;8.712;2023-12-22T06:50:36;11.45;;;2.38;;
25351;SDS011;13304;48.464;8.712;2023-12-22T06:53:04;13.10;;;2.80;;
25351;SDS011;13304;48.464;8.712;2023-12-22T06:55:30;12.07;;;2.83;;
25351;SDS011;13304;48.464;8.712;2023-12-22T06:57:55;16.40;;;2.83;;
25351;SDS011;13304;48.464;8.712;2023-12-22T07:00:21;12.57;;;2.53;;
25351;SDS011;13304;48.464;8.712;2023-12-22T07:02:47;16.65;;;3.20;;
25351;SDS011;13304;48.464;8.712;2023-12-22T07:07:47;11.27;;;2.72;;
25351;SDS011;13304;48.464;8.712;2023-12-22T07:10:13;10.50;;;2.25;;
25351;SDS011;13304;48.464;8.712;2023-12-22T07:12:38;17.42;;;3.00;;
25351;SDS011;13304;48.464;8.712;2023-12-22T07:15:05;15.55;;;3.13;;
25351;SDS011;13304;48.464;8.712;2023-12-22T07:17:33;16.88;;;2.28;;
25351;SDS011;13304;48.464;8.712;2023-12-22T07:19:59;12.75;;;2.38;;
25351;SDS011;13304;48.464;8.712;2023-12-22T07:22:28;17.10;;;3.15;;
25351;SDS011;13304;48.464;8.712;2023-12-22T07:24:54;14.20;;;2.50;;
25351;SDS011;13304;48.464;8.712;2023-12-22T07:27:20;13.80;;;2.70;;
25351;SDS011;13304;48.464;8.712;2023-12-22T07:29:46;16.98;;;2.60;;
25351;SDS011;13304;48.464;8.712;2023-12-22T07:32:12;15.73;;;2.90;;
25351;SDS011;13304;48.464;8.712;2023-12-22T07:34:37;15.75;;;2.78;;
25351;SDS011;13304;48.464;8.712;2023-12-22T07:37:03;16.70;;;3.00;;
25351;SDS011;13304;48.464;8.712;2023-12-22T07:39:32;16.02;;;2.50;;
25351;SDS011;13304;48.464;8.712;2023-12-22T07:41:57;15.13;;;2.45;;
25351;SDS011;13304;48.464;8.712;2023-12-22T07:44:23;12.13;;;2.72;;
25351;SDS011;13304;48.464;8.712;2023-12-22T07:47:07;11.02;;;2.40;;
25351;SDS011;13304;48.464;8.712;2023-12-22T07:49:34;13.90;;;2.80;;
25351;SDS011;13304;48.464;8.712;2023-12-22T07:52:00;17.30;;;2.70;;
25351;SDS011;13304;48.464;8.712;2023-12-22T07:54:25;13.75;;;2.70;;
25351;SDS011;13304;48.464;8.712;2023-12-22T07:56:51;16.92;;;2.38;;
25351;SDS011;13304;48.464;8.712;2023-12-22T07:59:20;13.60;;;2.50;;
25351;SDS011;13304;48.464;8.712;2023-12-22T08:01:46;12.23;;;2.75;;
25351;SDS011;13304;48.464;8.712;2023-12-22T08:04:11;17.92;;;3.08;;
25351;SDS011;13304;48.464;8.712;2023-12-22T08:06:37;17.30;;;3.08;;
25351;SDS011;13304;48.464;8.712;2023-12-22T08:09:03;15.70;;;2.55;;
25351;SDS011;13304;48.464;8.712;2023-12-22T08:11:28;14.38;;;2.88;;
25351;SDS011;13304;48.464;8.712;2023-12-22T08:13:54;14.93;;;2.92;;
25351;SDS011;13304;48.464;8.712;2023-12-22T08:16:20;11.88;;;2.70;;
25351;SDS011;13304;48.464;8.712;2023-12-22T08:18:45;13.07;;;2.80;;
25351;SDS011;13304;48.464;8.712;2023-12-22T08:21:11;13.07;;;2.88;;
25351;SDS011;13304;48.464;8.712;2023-12-22T08:23:38;11.50;;;2.55;;
25351;SDS011;13304;48.464;8.712;2023-12-22T08:26:04;11.88;;;2.40;;
25351;SDS011;13304;48.464;8.712;2023-12-22T08:28:32;10.90;;;2.50;;
25351;SDS011;13304;48.464;8.712;2023-12-22T08:30:57;15.23;;;2.83;;
25351;SDS011;13304;48.464;8.712;2023-12-22T08:33:23;18.27;;;2.15;;
25351;SDS011;13304;48.464;8.712;2023-12-22T08:35:49;15.48;;;2.92;;
25351;SDS011;13304;48.464;8.712;2023-12-22T08:38:14;15.35;;;2.83;;
25351;SDS011;13304;48.464;8.712;2023-12-22T08:40:43;13.60;;;3.20;;
25351;SDS011;13304;48.464;8.712;2023-12-22T08:43:09;17.23;;;2.95;;
25351;SDS011;13304;48.464;8.712;2023-12-22T08:45:34;10.50;;;2.10;;
25351;SDS011;13304;48.464;8.712;2023-12-22T08:48:00;12.15;;;2.53;;
25351;SDS011;13304;48.464;8.712;2023-12-22T08:50:27;13.05;;;3.22;;
25351;SDS011;13304;48.464;8.712;2023-12-22T08:52:53;12.77;;;2.45;;
25351;SDS011;13304;48.464;8.712;2023-12-22T08:55:18;14.57;;;2.92;;
25351;SDS011;13304;48.464;8.712;2023-12-22T08:57:44;16.83;;;3.17;;
25351;SDS011;13304;48.464;8.712;2023-12-22T09:00:10;8.65;;;1.95;;
25351;SDS011;13304;48.464;8.712;2023-12-22T09:02:36;10.15;;;2.30;;
25351;SDS011;13304;48.464;8.712;2023-12-22T09:05:02;16.50;;;2.88;;
25351;SDS011;13304;48.464;8.712;2023-12-22T09:07:28;18.08;;;2.72;;
25351;SDS011;13304;48.464;8.712;2023-12-22T09:09:53;20.77;;;2.83;;
25351;SDS011;13304;48.464;8.712;2023-12-22T09:12:19;13.77;;;2.67;;
25351;SDS011;13304;48.464;8.712;2023-12-22T09:14:44;14.13;;;2.17;;
25351;SDS011;13304;48.464;8.712;2023-12-22T09:17:10;14.68;;;3.08;;
25351;SDS011;13304;48.464;8.712;2023-12-22T09:19:36;12.52;;;2.72;;
25351;SDS011;13304;48.464;8.712;2023-12-22T09:22:03;12.43;;;2.90;;
25351;SDS011;13304;48.464;8.712;2023-12-22T09:24:29;15.52;;;2.65;;
25351;SDS011;13304;48.464;8.712;2023-12-22T09:26:55;14.82;;;2.88;;
25351;SDS011;13304;48.464;8.712;2023-12-22T09:29:27;19.90;;;3.38;;
25351;SDS011;13304;48.464;8.712;2023-12-22T09:31:58;22.50;;;2.95;;
25351;SDS011;13304;48.464;8.712;2023-12-22T09:34:25;24.67;;;3.70;;
25351;SDS011;13304;48.464;8.712;2023-12-22T09:36:52;16.13;;;3.40;;
25351;SDS011;13304;48.464;8.712;2023-12-22T09:39:18;16.27;;;3.40;;
25351;SDS011;13304;48.464;8.712;2023-12-22T09:41:45;21.23;;;3.38;;
25351;SDS011;13304;48.464;8.712;2023-12-22T09:44:22;15.40;;;3.25;;
25351;SDS011;13304;48.464;8.712;2023-12-22T09:46:50;15.05;;;2.47;;
25351;SDS011;13304;48.464;8.712;2023-12-22T09:49:17;16.63;;;2.92;;
25351;SDS011;13304;48.464;8.712;2023-12-22T09:51:44;18.40;;;2.95;;
25351;SDS011;13304;48.464;8.712;2023-12-22T09:54:10;17.33;;;3.15;;
25351;SDS011;13304;48.464;8.712;2023-12-22T09:56:38;21.45;;;4.32;;
25351;SDS011;13304;48.464;8.712;2023-12-22T09:59:09;21.95;;;3.47;;
25351;SDS011;13304;48.464;8.712;2023-12-22T10:01:48;20.65;;;3.58;;
25351;SDS011;13304;48.464;8.712;2023-12-22T10:04:17;18.08;;;2.63;;
25351;SDS011;13304;48.464;8.712;2023-12-22T10:06:43;16.92;;;3.28;;
25351;SDS011;13304;48.464;8.712;2023-12-22T10:09:12;18.08;;;3.28;;
25351;SDS011;13304;48.464;8.712;2023-12-22T10:11:39;16.52;;;3.25;;
25351;SDS011;13304;48.464;8.712;2023-12-22T10:14:08;17.97;;;3.00;;
25351;SDS011;13304;48.464;8.712;2023-12-22T10:16:35;17.58;;;3.08;;
25351;SDS011;13304;48.464;8.712;2023-12-22T10:19:05;13.70;;;2.85;;
25351;SDS011;13304;48.464;8.712;2023-12-22T10:23:57;15.52;;;2.65;;
25351;SDS011;13304;48.464;8.712;2023-12-22T10:26:25;15.00;;;2.87;;
25351;SDS011;13304;48.464;8.712;2023-12-22T10:28:51;15.13;;;2.88;;
25351;SDS011;13304;48.464;8.712;2023-12-22T10:31:17;10.05;;;2.00;;
25351;SDS011;13304;48.464;8.712;2023-12-22T10:33:43;10.68;;;2.67;;
25351;SDS011;13304;48.464;8.712;2023-12-22T10:36:09;12.15;;;2.60;;
25351;SDS011;13304;48.464;8.712;2023-12-22T10:38:35;13.40;;;2.35;;
25351;SDS011;13304;48.464;8.712;2023-12-22T10:41:05;13.77;;;2.58;;
25351;SDS011;13304;48.464;8.712;2023-12-22T10:43:38;15.68;;;3.25;;
25351;SDS011;13304;48.464;8.712;2023-12-22T10:46:05;11.38;;;2.72;;
25351;SDS011;13304;48.464;8.712;2023-12-22T10:48:33;11.50;;;2.40;;
25351;SDS011;13304;48.464;8.712;2023-12-22T10:50:59;15.40;;;2.05;;
25351;SDS011;13304;48.464;8.712;2023-12-22T10:53:24;17.42;;;2.78;;
25351;SDS011;13304;48.464;8.712;2023-12-22T10:55:50;9.25;;;2.10;;
25351;SDS011;13304;48.464;8.712;2023-12-22T10:58:16;13.50;;;2.28;;
25351;SDS011;13304;48.464;8.712;2023-12-22T11:00:44;12.90;;;3.00;;
25351;SDS011;13304;48.464;8.712;2023-12-22T11:03:12;9.35;;;1.77;;
25351;SDS011;13304;48.464;8.712;2023-12-22T11:05:44;9.43;;;2.30;;
25351;SDS011;13304;48.464;8.712;2023-12-22T11:10:41;8.57;;;2.40;;
25351;SDS011;13304;48.464;8.712;2023-12-22T11:13:11;8.43;;;2.17;;
25351;SDS011;13304;48.464;8.712;2023-12-22T11:15:37;11.55;;;1.95;;
25351;SDS011;13304;48.464;8.712;2023-12-22T11:18:05;8.82;;;1.40;;
25351;SDS011;13304;48.464;8.712;2023-12-22T11:20:32;3.78;;;1.13;;
25351;SDS011;13304;48.464;8.712;2023-12-22T11:23:00;5.43;;;1.33;;
25351;SDS011;13304;48.464;8.712;2023-12-22T11:25:27;4.90;;;1.08;;
25351;SDS011;13304;48.464;8.712;2023-12-22T11:27:55;2.72;;;1.00;;
25351;SDS011;13304;48.464;8.712;2023-12-22T11:30:23;3.80;;;1.15;;
25351;SDS011;13304;48.464;8.712;2023-12-22T11:32:50;6.78;;;1.67;;
25351;SDS011;13304;48.464;8.712;2023-12-22T11:35:20;5.47;;;0.88;;
25351;SDS011;13304;48.464;8.712;2023-12-22T11:37:49;4.93;;;0.90;;
25351;SDS011;13304;48.464;8.712;2023-12-22T11:40:15;4.90;;;1.00;;
25351;SDS011;13304;48.464;8.712;2023-12-22T11:42:42;5.63;;;1.25;;
25351;SDS011;13304;48.464;8.712;2023-12-22T11:45:12;4.40;;;0.90;;
25351;SDS011;13304;48.464;8.712;2023-12-22T11:47:41;3.92;;;1.10;;
25351;SDS011;13304;48.464;8.712;2023-12-22T11:50:10;4.32;;;1.33;;
25351;SDS011;13304;48.464;8.712;2023-12-22T11:55:02;2.53;;;0.70;;
25351;SDS011;13304;48.464;8.712;2023-12-22T11:59:55;2.05;;;0.70;;
25351;SDS011;13304;48.464;8.712;2023-12-22T12:02:21;4.78;;;1.02;;
25351;SDS011;13304;48.464;8.712;2023-12-22T12:04:47;3.67;;;1.10;;
25351;SDS011;13304;48.464;8.712;2023-12-22T12:10:05;1.65;;;0.80;;
25351;SDS011;13304;48.464;8.712;2023-12-22T12:12:31;3.63;;;0.70;;
25351;SDS011;13304;48.464;8.712;2023-12-22T12:15:00;2.17;;;0.50;;
25351;SDS011;13304;48.464;8.712;2023-12-22T12:17:41;1.67;;;0.60;;
25351;SDS011;13304;48.464;8.712;2023-12-22T12:20:08;2.42;;;0.60;;
25351;SDS011;13304;48.464;8.712;2023-12-22T12:22:35;8.57;;;0.90;;
25351;SDS011;13304;48.464;8.712;2023-12-22T12:25:06;1.80;;;0.60;;
25351;SDS011;13304;48.464;8.712;2023-12-22T12:27:34;1.45;;;0.70;;
25351;SDS011;13304;48.464;8.712;2023-12-22T12:30:11;2.80;;;0.63;;
25351;SDS011;13304;48.464;8.712;2023-12-22T12:32:41;1.88;;;0.77;;
25351;SDS011;13304;48.464;8.712;2023-12-22T12:35:11;1.50;;;0.60;;
25351;SDS011;13304;48.464;8.712;2023-12-22T12:37:37;2.67;;;0.70;;
25351;SDS011;13304;48.464;8.712;2023-12-22T12:40:04;1.95;;;0.73;;
25351;SDS011;13304;48.464;8.712;2023-12-22T12:42:33;2.58;;;0.73;;
25351;SDS011;13304;48.464;8.712;2023-12-22T12:45:03;1.75;;;0.60;;
25351;SDS011;13304;48.464;8.712;2023-12-22T12:47:30;2.15;;;0.57;;
25351;SDS011;13304;48.464;8.712;2023-12-22T12:49:57;2.28;;;0.60;;
25351;SDS011;13304;48.464;8.712;2023-12-22T12:52:24;0.75;;;0.43;;
25351;SDS011;13304;48.464;8.712;2023-12-22T12:54:50;1.27;;;0.45;;
25351;SDS011;13304;48.464;8.712;2023-12-22T12:57:16;1.48;;;0.50;;
25351;SDS011;13304;48.464;8.712;2023-12-22T12:59:49;1.13;;;0.60;;
25351;SDS011;13304;48.464;8.712;2023-12-22T13:02:18;1.08;;;0.47;;
25351;SDS011;13304;48.464;8.712;2023-12-22T13:04:47;0.57;;;0.40;;
25351;SDS011;13304;48.464;8.712;2023-12-22T13:07:13;0.80;;;0.30;;
25351;SDS011;13304;48.464;8.712;2023-12-22T13:09:48;0.40;;;0.40;;
25351;SDS011;13304;48.464;8.712;2023-12-22T13:12:18;0.68;;;0.30;;
25351;SDS011;13304;48.464;8.712;2023-12-22T13:14:44;1.10;;;0.40;;
25351;SDS011;13304;48.464;8.712;2023-12-22T13:17:09;0.70;;;0.50;;
25351;SDS011;13304;48.464;8.712;2023-12-22T13:19:36;4.47;;;2.97;;
25351;SDS011;13304;48.464;8.712;2023-12-22T13:22:02;1.50;;;1.40;;
25351;SDS011;13304;48.464;8.712;2023-12-22T13:24:28;1.08;;;0.70;;
25351;SDS011;13304;48.464;8.712;2023-12-22T13:27:00;1.77;;;0.50;;
25351;SDS011;13304;48.464;8.712;2023-12-22T13:29:28;3.15;;;0.60;;
25351;SDS011;13304;48.464;8.712;2023-12-22T13:31:54;1.70;;;0.55;;
25351;SDS011;13304;48.464;8.712;2023-12-22T13:34:22;0.70;;;0.50;;
25351;SDS011;13304;48.464;8.712;2023-12-22T13:36:48;0.70;;;0.40;;
25351;SDS011;13304;48.464;8.712;2023-12-22T13:39:14;0.77;;;0.50;;
25351;SDS011;13304;48.464;8.712;2023-12-22T13:41:41;0.40;;;0.40;;
25351;SDS011;13304;48.464;8.712;2023-12-22T13:44:10;1.30;;;0.32;;
25351;SDS011;13304;48.464;8.712;2023-12-22T13:46:39;0.30;;;0.30;;
25351;SDS011;13304;48.464;8.712;2023-12-22T13:49:10;0.60;;;0.50;;
25351;SDS011;13304;48.464;8.712;2023-12-22T13:51:39;0.40;;;0.30;;
25351;SDS011;13304;48.464;8.712;2023-12-22T13:54:09;0.57;;;0.30;;
25351;SDS011;13304;48.464;8.712;2023-12-22T13:56:35;1.13;;;0.40;;
25351;SDS011;13304;48.464;8.712;2023-12-22T13:59:02;2.17;;;0.40;;
25351;SDS011;13304;48.464;8.712;2023-12-22T14:01:29;0.38;;;0.30;;
25351;SDS011;13304;48.464;8.712;2023-12-22T14:03:55;1.60;;;0.30;;
25351;SDS011;13304;48.464;8.712;2023-12-22T14:06:23;0.25;;;0.25;;
25351;SDS011;13304;48.464;8.712;2023-12-22T14:08:49;2.00;;;0.20;;
25351;SDS011;13304;48.464;8.712;2023-12-22T14:11:15;1.58;;;0.40;;
25351;SDS011;13304;48.464;8.712;2023-12-22T14:13:41;0.40;;;0.30;;
25351;SDS011;13304;48.464;8.712;2023-12-22T14:16:07;1.02;;;0.80;;
25351;SDS011;13304;48.464;8.712;2023-12-22T14:18:32;2.35;;;0.60;;
25351;SDS011;13304;48.464;8.712;2023-12-22T14:20:58;0.57;;;0.57;;
25351;SDS011;13304;48.464;8.712;2023-12-22T14:23:24;0.40;;;0.40;;
25351;SDS011;13304;48.464;8.712;2023-12-22T14:25:50;0.57;;;0.50;;
25351;SDS011;13304;48.464;8.712;2023-12-22T14:28:16;1.35;;;0.88;;
25351;SDS011;13304;48.464;8.712;2023-12-22T14:30:42;1.25;;;0.75;;
25351;SDS011;13304;48.464;8.712;2023-12-22T14:33:07;0.73;;;0.57;;
25351;SDS011;13304;48.464;8.712;2023-12-22T14:35:34;0.55;;;0.30;;
25351;SDS011;13304;48.464;8.712;2023-12-22T14:38:00;0.50;;;0.50;;
25351;SDS011;13304;48.464;8.712;2023-12-22T14:40:26;0.38;;;0.38;;
25351;SDS011;13304;48.464;8.712;2023-12-22T14:42:52;0.82;;;0.40;;
25351;SDS011;13304;48.464;8.712;2023-12-22T14:45:18;0.32;;;0.30;;
25351;SDS011;13304;48.464;8.712;2023-12-22T14:47:43;0.20;;;0.20;;
25351;SDS011;13304;48.464;8.712;2023-12-22T14:50:09;0.70;;;0.20;;
25351;SDS011;13304;48.464;8.712;2023-12-22T14:52:38;0.30;;;0.30;;
25351;SDS011;13304;48.464;8.712;2023-12-22T14:55:04;1.52;;;1.05;;
25351;SDS011;13304;48.464;8.712;2023-12-22T14:57:30;0.50;;;0.50;;
25351;SDS011;13304;48.464;8.712;2023-12-22T14:59:56;0.50;;;0.50;;